Time;durP1;ratioP1;P1;durP2;ratioP2;P2;SDS_P1;SDS_P2;PMS_P1;PMS_P2;Temp;Humidity;BMP_temperature;BMP_pressure;BME280_temperature;BME280_humidity;BME280_pressure;Samples;Min_cycle;Max_cycle;Signal;HPM_P1;HPM_P2
2023/01/28 00:00:27;;;;;;;;;;;;;;;;;;4999354;28;21559;-84
2023/01/28 00:02:52;;;;;;;;;;;;;;;;;;5000531;28;19926;-84
2023/01/28 00:05:17;;;;;;;;;;;;;;;1.38;100.00;66931.50;5020983;28;20337;-84
2023/01/28 00:07:52;;;;;;;;;;;;;;;1.37;100.00;66930.94;5004640;28;19956;-84
2023/01/28 00:10:17;;;;;;;;;;;;;;;1.35;100.00;66929.25;5076667;27;19963;-84
2023/01/28 00:12:43;;;;;;;;;;;;;;;1.37;100.00;66930.38;4981082;27;19963;-84
2023/01/28 00:15:09;;;;;;;;;;;;;;;;;;5004157;28;19961;-84
2023/01/28 00:17:35;;;;;;;;;;;;;;;1.38;100.00;66926.25;5025004;28;19921;-84
2023/01/28 00:20:01;;;;;;;;;;;;;;;;;;5009170;28;20014;-85
2023/01/28 00:22:26;;;;;;;;;;;;;;;1.37;100.00;66930.94;4999182;28;19922;-85
2023/01/28 00:24:51;;;;;;;;;;;;;;;;;;4990669;28;20408;-85
2023/01/28 00:27:16;;;;;;;;;;;;;;;;;;5006002;28;19929;-84
2023/01/28 00:29:41;;;;;;;;;;;;;;;;;;4992663;28;19932;-85
2023/01/28 00:32:06;;;;;;;;;;;;;;;1.35;100.00;66931.28;5004446;28;19922;-85
2023/01/28 00:34:32;;;;;;;;;;;;;;;1.34;100.00;66927.56;4989070;28;19987;-85
2023/01/28 00:36:57;;;;;;;;;;;;;;;1.34;100.00;66919.69;4993424;28;19974;-85
2023/01/28 00:39:22;;;;;;;;;;;;;;;;;;5002474;28;19951;-85
2023/01/28 00:41:47;;;;;;;;;;;;;;;1.27;100.00;66924.94;5007754;28;19931;-85
2023/01/28 00:44:12;;;;;;;;;;;;;;;;;;5007990;28;19967;-85
2023/01/28 00:46:38;;;;;;;;;;;;;;;1.28;100.00;66916.13;5003541;28;20010;-85
2023/01/28 00:49:03;;;;;;;;;;;;;;;1.28;100.00;66928.66;4991611;28;19921;-85
2023/01/28 00:51:28;;;;;;;;;;;;;;;1.27;100.00;66920.25;5007353;28;20420;-85
2023/01/28 00:53:54;;;;;;;;;;;;;;;;;;5002162;28;19960;-85
2023/01/28 00:56:19;;;;;;;;;;;;;;;1.24;100.00;66916.31;5002098;28;19937;-85
2023/01/28 00:58:45;;;;;;;;;;;;;;;1.24;100.00;66916.31;5004799;28;19924;-85
2023/01/28 01:01:10;;;;;;;;;;;;;;;;;;5005518;28;20047;-84
2023/01/28 01:03:35;;;;;;;;;;;;;;;;;;4991681;28;19930;-85
2023/01/28 01:06:00;;;;;;;;;;;;;;;;;;4994229;28;20362;-85
2023/01/28 01:08:33;;;;;;;;;;;;;;;1.22;100.00;66914.06;4984149;28;19939;-85
2023/01/28 01:10:59;;;;;;;;;;;;;;;1.20;100.00;66911.81;4989902;28;19977;-85
2023/01/28 01:13:24;;;;;;;;;;;;;;;1.16;100.00;66907.88;4981994;28;20335;-85
2023/01/28 01:15:49;;;;;;;;;;;;;;;1.17;100.00;66908.97;5016461;28;19926;-86
2023/01/28 01:18:15;;;;;;;;;;;;;;;1.16;100.00;66907.31;4967553;28;19922;-85
2023/01/28 01:20:44;;;;;;;;;;;;;;;1.17;100.00;66911.03;4982539;28;20009;-85
2023/01/28 01:23:09;;;;;;;;;;;;;;;1.14;100.00;66910.84;4985030;28;20367;-85
2023/01/28 01:25:35;;;;;;;;;;;;;;;1.17;100.00;66911.03;4968690;28;19925;-86
2023/01/28 01:28:00;;;;;;;;;;;;;;;1.15;100.00;66906.16;4972321;28;19925;-85
2023/01/28 01:30:26;;;;;;;;;;;;;;;1.10;100.00;66901.69;4983566;28;19957;-85
2023/01/28 01:32:51;;;;;;;;;;;;;;;1.06;100.00;66897.16;4960392;28;20016;-85
2023/01/28 01:35:16;;;;;;;;;;;;;;;1.05;100.00;66890.25;4957665;28;20040;-85
2023/01/28 01:37:43;;;;;;;;;;;;;;;1.04;100.00;66894.91;4969898;28;19953;-85
2023/01/28 01:40:08;;;;;;;;;;;;;;;;;;4983614;28;19937;-85
2023/01/28 01:42:33;;;;;;;;;;;;;;;1.02;100.00;66892.66;4968730;28;19918;-85
2023/01/28 01:44:58;;;;;;;;;;;;;;;;;;4965558;28;19922;-85
2023/01/28 01:47:39;;;;;;;;;;;;;;;1.01;100.00;66896.22;4982236;28;19971;-86
2023/01/28 01:50:04;;;;;;;;;;;;;;;;;;4973401;28;19926;-85
2023/01/28 01:52:29;;;;;;;;;;;;;;;;;;4965108;28;19925;-85
2023/01/28 01:54:56;;;;;;;;;;;;;;;0.97;100.00;66886.47;4960267;28;20417;-85
2023/01/28 01:57:25;;;;;;;;;;;;;;;0.98;100.00;66887.59;4962724;28;19934;-85
2023/01/28 01:59:51;;;;;;;;;;;;;;;0.97;100.00;66887.03;4963993;28;19934;-85
2023/01/28 02:02:16;;;;;;;;;;;;;;;0.94;100.00;66883.66;4973864;28;19918;-85
2023/01/28 02:04:43;;;;;;;;;;;;;;;0.99;100.00;66883.50;4994889;28;20040;-85
2023/01/28 02:07:09;;;;;;;;;;;;;;;0.91;100.00;66880.28;5022139;28;19976;-85
2023/01/28 02:09:35;;;;;;;;;;;;;;;;;;4965924;28;19922;-85
2023/01/28 02:12:00;;;;;;;;;;;;;;;;;;4966178;28;20269;-85
2023/01/28 02:14:27;;;;;;;;;;;;;;;0.92;100.00;66881.41;4962402;28;19917;-85
2023/01/28 02:16:52;;;;;;;;;;;;;;;;;;4961211;28;20464;-85
2023/01/28 02:19:19;;;;;;;;;;;;;;;0.88;100.00;66879.53;4960016;28;20087;-85
2023/01/28 02:21:44;;;;;;;;;;;;;;;;;;4959059;28;19998;-85
2023/01/28 02:24:09;;;;;;;;;;;;;;;;;;4965436;28;19997;-85
2023/01/28 02:26:34;;;;;;;;;;;;;;;;;;4958829;28;19984;-85
2023/01/28 02:29:00;;;;;;;;;;;;;;;;;;4958894;28;19942;-85
2023/01/28 02:31:28;;;;;;;;;;;;;;;0.73;100.00;66860.59;4969559;28;19918;-85
2023/01/28 02:34:15;;;;;;;;;;;;;;;0.68;100.00;66849.72;4969166;28;19965;-85
2023/01/28 02:36:56;;;;;;;;;;;;;;;0.70;100.00;66859.84;4960849;28;19926;-85
2023/01/28 02:39:21;;;;;;;;;;;;;;;;;;4961440;28;20014;-85
2023/01/28 02:41:52;;;;;;;;;;;;;;;0.69;100.00;66856.09;4979438;28;20008;-85
2023/01/28 02:44:17;;;;;;;;;;;;;;;0.62;100.00;66843.53;4961283;28;19922;-85
2023/01/28 02:49:38;;;;;;;;;;;;;;;0.61;100.00;66842.44;4988816;28;19927;-85
2023/01/28 02:52:03;;;;;;;;;;;;;;;;;;4991328;28;19936;-85
2023/01/28 02:54:35;;;;;;;;;;;;;;;0.54;100.00;66839.78;5003053;28;19951;-86
2023/01/28 02:57:21;;;;;;;;;;;;;;;0.51;100.00;66831.16;4986780;28;19930;-85
2023/01/28 02:59:55;;;;;;;;;;;;;;;0.50;100.00;66837.91;4984912;28;20301;-85
2023/01/28 03:02:23;;;;;;;;;;;;;;;0.51;100.00;66839.03;4988977;28;19925;-85
2023/01/28 03:04:54;;;;;;;;;;;;;;;0.48;100.00;66835.66;4987598;28;20203;-85
2023/01/28 03:07:21;;;;;;;;;;;;;;;0.51;100.00;66836.41;4985780;28;19928;-86
2023/01/28 03:09:46;;;;;;;;;;;;;;;;;;4984531;28;20439;-85
2023/01/28 03:37:38;;;;;;;;;;;;;;;0.24;100.00;66808.66;4967827;28;20015;-85
2023/01/28 03:40:06;;;;;;;;;;;;;;;0.22;100.00;66804.91;4971335;28;19918;-85
2023/01/28 03:42:31;;;;;;;;;;;;;;;;;;4964299;28;19923;-85
2023/01/28 03:44:56;;;;;;;;;;;;;;;0.14;100.00;66795.91;4958179;28;19917;-85
2023/01/28 03:47:22;;;;;;;;;;;;;;;0.14;100.00;66797.97;4954181;28;19922;-85
2023/01/28 03:49:48;;;;;;;;;;;;;;;0.11;100.00;66792.53;4948441;28;19922;-85
2023/01/28 03:52:14;;;;;;;;;;;;;;;0.08;100.00;66789.16;5016485;28;19971;-85
2023/01/28 03:54:39;;;;;;;;;;;;;;;0.08;100.00;66791.78;4984826;28;19922;-85
2023/01/28 03:57:05;;;;;;;;;;;;;;;0.05;100.00;66788.41;4976870;28;19949;-85
2023/01/28 03:59:33;;;;;;;;;;;;;;;0.06;100.00;66786.34;5003707;28;19931;-84
2023/01/28 04:01:59;;;;;;;;;;;;;;;0.04;100.00;66784.69;5003532;28;19925;-85
2023/01/28 04:04:24;;;;;;;;;;;;;;;0.01;100.00;66781.31;5008448;28;19955;-85
2023/01/28 04:06:53;;;;;;;;;;;;;;;-0.05;100.00;66779.78;5055025;28;19932;-85
2023/01/28 04:09:19;;;;;;;;;;;;;;;-0.05;100.00;66774.56;5054964;28;19920;-85
2023/01/28 04:11:45;;;;;;;;;;;;;;;-0.02;100.00;66777.94;5060383;28;19978;-85
2023/01/28 04:14:10;;;;;;;;;;;;;;;;;;4994618;28;20200;-85
2023/01/28 04:16:36;;;;;;;;;;;;;;;-0.03;100.00;66776.78;4982996;28;20017;-85
2023/01/28 04:19:01;;;;;;;;;;;;;;;-0.06;100.00;66774.00;4949993;28;20600;-85
2023/01/28 04:21:29;;;;;;;;;;;;;;;-0.08;100.00;66773.81;5011227;28;20510;-85
2023/01/28 04:23:55;;;;;;;;;;;;;;;-0.05;100.00;66774.56;4993277;28;20011;-84
2023/01/28 04:26:20;;;;;;;;;;;;;;;;;;4959016;28;19957;-85
2023/01/28 04:28:46;;;;;;;;;;;;;;;-0.05;100.00;66774.56;5020750;28;19916;-85
2023/01/28 04:31:11;;;;;;;;;;;;;;;-0.05;100.00;66777.75;5059040;28;20351;-85
2023/01/28 04:33:36;;;;;;;;;;;;;;;;;;5049235;28;19917;-85
2023/01/28 04:36:01;;;;;;;;;;;;;;;-0.07;100.00;66772.88;5044985;28;19922;-85
2023/01/28 04:38:27;;;;;;;;;;;;;;;-0.06;100.00;66773.44;4974530;28;20016;-85
2023/01/28 04:40:52;;;;;;;;;;;;;;;-0.12;100.00;66761.44;4962509;28;19925;-85
2023/01/28 04:43:18;;;;;;;;;;;;;;;-0.10;100.00;66774.16;4958278;28;20396;-85
2023/01/28 04:45:44;;;;;;;;;;;;;;;-0.12;100.00;66766.69;5002037;28;19967;-85
2023/01/28 04:48:09;;;;;;;;;;;;;;;-0.18;100.00;66755.28;4961348;28;19918;-85
2023/01/28 04:50:34;;;;;;;;;;;;;;;-0.13;100.00;66766.13;4954138;28;19969;-85
2023/01/28 04:52:59;;;;;;;;;;;;;;;-0.17;100.00;66763.69;4957583;28;19938;-85
2023/01/28 04:55:25;;;;;;;;;;;;;;;-0.15;100.00;66758.09;5001596;28;19919;-85
2023/01/28 04:57:50;;;;;;;;;;;;;;;;;;4953640;28;20014;-85
2023/01/28 05:00:15;;;;;;;;;;;;;;;-0.13;100.00;66766.13;4960520;28;20432;-85
2023/01/28 05:02:40;;;;;;;;;;;;;;;;;;4971043;28;19918;-85
2023/01/28 05:05:07;;;;;;;;;;;;;;;-0.14;100.00;66764.44;4957305;28;19945;-85
2023/01/28 05:07:33;;;;;;;;;;;;;;;-0.15;100.00;66763.31;4952654;28;20552;-85
2023/01/28 05:09:58;;;;;;;;;;;;;;;;;;4951915;28;19925;-85
2023/01/28 05:12:23;;;;;;;;;;;;;;;-0.20;100.00;66757.69;4970654;28;20093;-85
2023/01/28 05:14:48;;;;;;;;;;;;;;;-0.25;100.00;66747.97;4963319;28;19944;-85
2023/01/28 05:17:14;;;;;;;;;;;;;;;-0.24;100.00;66753.75;4969942;28;19922;-85
2023/01/28 05:19:39;;;;;;;;;;;;;;;-0.25;100.00;66753.19;4965207;28;19918;-85
2023/01/28 05:22:04;;;;;;;;;;;;;;;-0.31;100.00;66749.06;4971736;28;19922;-85
2023/01/28 05:24:29;;;;;;;;;;;;;;;-0.35;100.00;66741.94;5016715;28;19924;-85
2023/01/28 05:26:55;;;;;;;;;;;;;;;-0.38;100.00;66738.56;4979261;28;19918;-85
2023/01/28 05:29:20;;;;;;;;;;;;;;;-0.39;100.00;66736.91;4967055;28;20001;-85
2023/01/28 05:31:46;;;;;;;;;;;;;;;-0.39;100.00;66736.91;4972858;28;19925;-85
2023/01/28 05:34:11;;;;;;;;;;;;;;;-0.40;100.00;66738.97;4953906;28;19932;-85
2023/01/28 05:36:37;;;;;;;;;;;;;;;-0.41;100.00;66737.81;4953608;28;19923;-85
2023/01/28 05:39:02;;;;;;;;;;;;;;;-0.49;100.00;66726.22;4952483;28;19980;-85
2023/01/28 05:41:27;;;;;;;;;;;;;;;-0.51;100.00;66724.53;4959668;28;19918;-85
2023/01/28 05:43:52;;;;;;;;;;;;;;;-0.55;100.00;66719.47;4983363;28;19928;-85
2023/01/28 05:46:17;;;;;;;;;;;;;;;-0.60;100.00;66713.88;4978609;28;20344;-85
2023/01/28 05:48:43;;;;;;;;;;;;;;;-0.54;100.00;66725.84;4964999;28;20278;-84
2023/01/28 05:51:08;;;;;;;;;;;;;;;;;;4964612;28;19984;-85
2023/01/28 05:53:33;;;;;;;;;;;;;;;-0.64;100.00;66709.38;4953815;28;20468;-85
2023/01/28 05:55:58;;;;;;;;;;;;;;;-0.73;100.00;66700.38;4962728;28;21799;-85
2023/01/28 05:58:25;;;;;;;;;;;;;;;-0.76;100.00;66699.63;5016303;28;20391;-85
2023/01/28 06:00:53;;;;;;;;;;;;;;;-0.80;100.00;66692.53;4978103;28;20021;-85
2023/01/28 06:03:18;;;;;;;;;;;;;;;-0.82;100.00;66689.72;4979447;28;19936;-85
2023/01/28 06:05:43;;;;;;;;;;;;;;;-0.80;100.00;66695.13;4973219;28;19922;-85
2023/01/28 06:08:09;;;;;;;;;;;;;;;-0.84;100.00;66687.44;4974375;28;19927;-85
2023/01/28 06:10:34;;;;;;;;;;;;;;;-0.77;100.00;66697.94;5004010;28;19916;-85
2023/01/28 06:12:59;;;;;;;;;;;;;;;-0.78;100.00;66694.75;5058433;28;19924;-85
2023/01/28 06:15:24;;;;;;;;;;;;;;;-0.79;100.00;66696.25;5056797;28;19951;-85
2023/01/28 06:17:50;;;;;;;;;;;;;;;-0.78;100.00;66694.75;5065829;28;19921;-85
2023/01/28 06:20:15;;;;;;;;;;;;;;;-0.78;100.00;66694.75;5027078;28;20366;-85
2023/01/28 06:22:41;;;;;;;;;;;;;;;-0.80;100.00;66691.97;4985908;28;19918;-85
2023/01/28 06:25:06;;;;;;;;;;;;;;;;;;4967782;28;19922;-85
2023/01/28 06:27:31;;;;;;;;;;;;;;;-0.80;100.00;66695.13;4988214;28;19981;-85
2023/01/28 06:29:56;;;;;;;;;;;;;;;-0.80;100.00;66697.75;4994676;28;19906;-85
2023/01/28 06:32:22;;;;;;;;;;;;;;;-0.79;100.00;66698.84;4975282;28;19930;-84
2023/01/28 06:34:47;;;;;;;;;;;;;;;-0.77;100.00;66695.88;4956758;28;19926;-85
2023/01/28 06:37:12;;;;;;;;;;;;;;;;;;4977816;28;20001;-85
2023/01/28 06:39:37;;;;;;;;;;;;;;;-0.81;100.00;66691.38;4957361;28;20040;-85
2023/01/28 06:42:02;;;;;;;;;;;;;;;-0.83;100.00;66689.16;4996455;28;19930;-85
2023/01/28 06:44:28;;;;;;;;;;;;;;;-0.83;100.00;66688.59;4957947;28;20009;-85
2023/01/28 06:46:53;;;;;;;;;;;;;;;;;;4955537;28;19966;-85
2023/01/28 06:49:19;;;;;;;;;;;;;;;-0.88;100.00;66686.13;4957650;28;19918;-84
2023/01/28 06:51:44;;;;;;;;;;;;;;;-0.86;100.00;66685.19;4954586;28;19918;-85
2023/01/28 06:54:09;;;;;;;;;;;;;;;-0.87;100.00;66684.63;4992367;28;19921;-85
2023/01/28 06:56:35;;;;;;;;;;;;;;;-0.80;100.00;66692.53;5000230;28;19931;-85
2023/01/28 06:59:00;;;;;;;;;;;;;;;-0.82;100.00;66689.72;4959744;28;20022;-85
2023/01/28 07:01:25;;;;;;;;;;;;;;;-0.79;100.00;66696.25;4957000;28;20377;-85
2023/01/28 07:03:50;;;;;;;;;;;;;;;-0.80;100.00;66692.53;4950993;28;20206;-85
2023/01/28 07:06:16;;;;;;;;;;;;;;;-0.78;100.00;66689.53;4954183;28;20214;-85
2023/01/28 07:08:41;;;;;;;;;;;;;;;-0.74;100.00;66698.69;4963780;28;19954;-85
2023/01/28 07:11:06;;;;;;;;;;;;;;;-0.76;100.00;66699.63;4961417;28;20005;-85
2023/01/28 07:13:32;;;;;;;;;;;;;;;-0.66;100.00;66707.13;4974211;28;19930;-85
2023/01/28 07:15:57;;;;;;;;;;;;;;;-0.67;100.00;66701.31;4950138;28;19926;-84
2023/01/28 07:18:22;;;;;;;;;;;;;;;;;;5022911;28;19917;-84
2023/01/28 07:20:47;;;;;;;;;;;;;;;-0.73;100.00;66702.97;4963254;28;19919;-85
2023/01/28 07:23:12;;;;;;;;;;;;;;;-0.72;100.00;66701.50;4961666;28;19919;-85
2023/01/28 07:25:38;;;;;;;;;;;;;;;-0.73;100.00;66702.97;5000141;28;19924;-85
2023/01/28 07:28:03;;;;;;;;;;;;;;;;;;4960995;28;19923;-85
2023/01/28 07:30:28;;;;;;;;;;;;;;;-0.72;100.00;66706.16;4965578;28;20010;-85
2023/01/28 07:32:54;;;;;;;;;;;;;;;-0.71;100.00;66702.63;4974669;28;20312;-85
2023/01/28 07:35:20;;;;;;;;;;;;;;;-0.70;100.00;66705.78;4995342;28;20892;-85
2023/01/28 07:37:45;;;;;;;;;;;;;;;;;;4971379;28;19923;-85
2023/01/28 07:40:10;;;;;;;;;;;;;;;-0.64;100.00;66709.38;4980483;28;19957;-85
2023/01/28 07:42:36;;;;;;;;;;;;;;;;;;4991653;28;20441;-85
2023/01/28 07:45:01;;;;;;;;;;;;;;;-0.64;100.00;66709.38;4981782;28;19921;-84
2023/01/28 07:47:26;;;;;;;;;;;;;;;-0.59;100.00;66717.59;4983320;28;19922;-85
2023/01/28 07:49:51;;;;;;;;;;;;;;;-0.57;100.00;66719.84;4983142;28;19961;-85
2023/01/28 07:52:16;;;;;;;;;;;;;;;-0.55;100.00;66719.47;4977764;28;19922;-85
2023/01/28 07:54:42;;;;;;;;;;;;;;;;;;4978528;28;19929;-85
2023/01/28 07:57:08;;;;;;;;;;;;;;;;;;4980728;28;19933;-84
2023/01/28 07:59:33;;;;;;;;;;;;;;;-0.50;100.00;66725.09;4980280;28;19971;-84
2023/01/28 08:02:00;;;;;;;;;;;;;;;-0.47;100.00;66734.25;4990860;28;19951;-85
2023/01/28 08:04:25;;;;;;;;;;;;;;;-0.51;100.00;66727.16;4975671;28;20017;-85
2023/01/28 08:06:51;;;;;;;;;;;;;;;-0.48;100.00;66727.34;4979104;28;20010;-85
2023/01/28 08:09:16;;;;;;;;;;;;;;;;;;4996746;28;19921;-85
2023/01/28 08:40:45;;;;;;;;;;;;;;;;;;5055193;28;20386;-86
2023/01/28 08:43:10;;;;;;;;;;;;;;;-0.21;100.00;66761.81;5044221;28;20456;-86
2023/01/28 08:45:38;;;;;;;;;;;;;;;-0.24;100.00;66753.75;5041132;28;20528;-86
2023/01/28 08:48:04;;;;;;;;;;;;;;;-0.13;100.00;66765.56;5041377;28;20344;-86
2023/01/28 08:50:31;;;;;;;;;;;;;;;-0.20;100.00;66760.88;5040431;28;19921;-86
2023/01/28 08:52:58;;;;;;;;;;;;;;;-0.26;100.00;66746.28;5043796;28;19983;-85
2023/01/28 08:55:24;;;;;;;;;;;;;;;-0.21;100.00;66756.56;5042246;28;19928;-86
2023/01/28 08:57:49;;;;;;;;;;;;;;;-0.20;100.00;66757.69;5043397;28;19917;-86
2023/01/28 09:00:14;;;;;;;;;;;;;;;;;;5043386;28;19917;-86
2023/01/28 09:02:39;;;;;;;;;;;;;;;-0.14;100.00;66767.06;5044576;28;19967;-86
2023/01/28 09:05:05;;;;;;;;;;;;;;;-0.16;100.00;66765.38;5039505;28;19925;-86
2023/01/28 09:07:30;;;;;;;;;;;;;;;;;;5032917;28;19949;-86
2023/01/28 09:09:55;;;;;;;;;;;;;;;-0.04;100.00;66775.69;5030289;28;19921;-86
2023/01/28 09:12:20;;;;;;;;;;;;;;;0.02;100.00;66785.03;5040340;28;19947;-86
2023/01/28 09:14:46;;;;;;;;;;;;;;;0.08;100.00;66789.16;5044062;28;20056;-86
2023/01/28 09:17:11;;;;;;;;;;;;;;;0.13;100.00;66796.84;5042451;28;20525;-86
2023/01/28 09:19:36;;;;;;;;;;;;;;;0.11;100.00;66792.53;5039253;28;19921;-86
2023/01/28 09:22:04;;;;;;;;;;;;;;;0.16;100.00;66798.16;5036429;28;19929;-85
2023/01/28 09:24:30;;;;;;;;;;;;;;;0.20;100.00;66802.69;5030802;28;19917;-85
2023/01/28 09:26:55;;;;;;;;;;;;;;;0.14;100.00;66798.53;5037508;28;19988;-87
2023/01/28 09:29:20;;;;;;;;;;;;;;;0.16;100.00;66800.78;5042556;28;19957;-85
2023/01/28 09:31:46;;;;;;;;;;;;;;;0.18;100.00;66799.88;5040582;28;19917;-85
2023/01/28 09:34:11;;;;;;;;;;;;;;;;;;5042191;28;19917;-86
2023/01/28 09:36:36;;;;;;;;;;;;;;;0.18;100.00;66803.03;5040797;28;20315;-86
2023/01/28 09:39:01;;;;;;;;;;;;;;;;;;5041097;28;20646;-86
2023/01/28 09:41:26;;;;;;;;;;;;;;;0.13;100.00;66796.84;5017572;28;20319;-86
2023/01/28 09:44:02;;;;;;;;;;;;;;;0.08;100.00;66789.16;5029704;28;20415;-86
2023/01/28 09:46:28;;;;;;;;;;;;;;;;;;5024885;28;20345;-85
2023/01/28 09:48:54;;;;;;;;;;;;;;;0.05;100.00;66785.25;5031044;28;19932;-84
2023/01/28 09:51:19;;;;;;;;;;;;;;;0.13;100.00;66796.84;5028014;28;19992;-84
2023/01/28 09:53:44;;;;;;;;;;;;;;;;;;5030260;28;19921;-85
2023/01/28 09:56:24;;;;;;;;;;;;;;;0.16;100.00;66797.59;5028224;28;19979;-84
2023/01/28 09:58:49;;;;;;;;;;;;;;;0.14;100.00;66795.91;5026129;28;19917;-84
2023/01/28 10:01:33;;;;;;;;;;;;;;;0.16;100.00;66800.78;5029063;28;19963;-85
2023/01/28 10:04:21;;;;;;;;;;;;;;;0.19;100.00;66801.53;5016384;28;19917;-86
2023/01/28 10:06:47;;;;;;;;;;;;;;;;;;5026297;28;19927;-85
2023/01/28 10:09:21;;;;;;;;;;;;;;;0.14;100.00;66795.91;5028279;28;19921;-86
2023/01/28 10:11:49;;;;;;;;;;;;;;;0.13;100.00;66794.78;5023373;28;19971;-86
2023/01/28 10:14:26;;;;;;;;;;;;;;;0.14;100.00;66795.91;5021491;28;20008;-86
2023/01/28 10:17:03;;;;;;;;;;;;;;;0.17;100.00;66798.72;5023535;28;19935;-86
2023/01/28 10:19:40;;;;;;;;;;;;;;;0.22;100.00;66804.91;5028000;28;19967;-86
2023/01/28 10:22:05;;;;;;;;;;;;;;;;;;5041442;28;19917;-87
2023/01/28 10:24:30;;;;;;;;;;;;;;;;;;5030589;28;20305;-86
2023/01/28 10:26:56;;;;;;;;;;;;;;;0.17;100.00;66798.72;5025509;28;20409;-86
2023/01/28 10:29:23;;;;;;;;;;;;;;;0.20;100.00;66797.44;5028893;28;20064;-86
2023/01/28 10:31:49;;;;;;;;;;;;;;;;;;5029129;28;19947;-86
2023/01/28 10:34:14;;;;;;;;;;;;;;;0.26;100.00;66808.88;5029794;28;20378;-87
2023/01/28 10:36:39;;;;;;;;;;;;;;;0.21;100.00;66808.47;5025822;28;19928;-86
2023/01/28 10:39:06;;;;;;;;;;;;;;;;;;5029180;28;19928;-86
2023/01/28 10:41:31;;;;;;;;;;;;;;;0.35;100.00;66818.97;5029604;28;19917;-86
2023/01/28 10:43:57;;;;;;;;;;;;;;;0.37;100.00;66820.66;5024950;28;19933;-86
2023/01/28 10:46:32;;;;;;;;;;;;;;;0.41;100.00;66827.78;5029045;28;19917;-86
2023/01/28 10:49:05;;;;;;;;;;;;;;;0.36;100.00;66822.16;5028881;28;19929;-86
2023/01/28 10:51:32;;;;;;;;;;;;;;;0.32;100.00;66815.06;5021996;28;20297;-86
2023/01/28 10:53:57;;;;;;;;;;;;;;;0.35;100.00;66818.41;5026879;28;19928;-86
2023/01/28 10:56:24;;;;;;;;;;;;;;;0.42;100.00;66826.28;5025970;28;19921;-86
2023/01/28 10:59:00;;;;;;;;;;;;;;;0.45;100.00;66829.66;5026454;28;19949;-86
2023/01/28 11:01:37;;;;;;;;;;;;;;;0.42;100.00;66826.28;5026445;28;19921;-86
2023/01/28 11:04:03;;;;;;;;;;;;;;;0.50;100.00;66834.72;5028849;28;20392;-86
2023/01/28 11:06:29;;;;;;;;;;;;;;;0.65;100.00;66854.22;5028403;28;20007;-86
2023/01/28 11:08:54;;;;;;;;;;;;;;;0.75;100.00;66862.28;5028682;28;19932;-86
2023/01/28 11:11:24;;;;;;;;;;;;;;;0.81;100.00;66869.03;5029640;28;19917;-86
2023/01/28 11:13:50;;;;;;;;;;;;;;;0.79;100.00;66866.78;5026742;28;19921;-86
2023/01/28 11:16:16;;;;;;;;;;;;;;;0.94;100.00;66883.66;5028758;28;19924;-86
2023/01/28 11:19:03;;;;;;;;;;;;;;;0.88;100.00;66876.91;5029407;28;19920;-87
2023/01/28 11:21:28;;;;;;;;;;;;;;;;;;5019272;28;19982;-86
2023/01/28 11:23:53;;;;;;;;;;;;;;;;;;5024355;28;19917;-86
2023/01/28 11:26:20;;;;;;;;;;;;;;;0.88;100.00;66876.91;5025416;28;19917;-86
2023/01/28 11:28:45;;;;;;;;;;;;;;;;;;5026512;28;20003;-85
2023/01/28 11:31:13;;;;;;;;;;;;;;;0.89;100.00;66878.59;5021366;28;20462;-86
2023/01/28 11:33:43;;;;;;;;;;;;;;;1.15;100.00;66908.78;5021730;28;19917;-86
2023/01/28 11:36:08;;;;;;;;;;;;;;;;;;5021001;28;20346;-86
2023/01/28 11:38:33;;;;;;;;;;;;;;;1.31;100.00;66924.75;5019418;28;20345;-86
2023/01/28 11:41:00;;;;;;;;;;;;;;;1.32;100.00;66925.88;5018449;28;20361;-86
2023/01/28 11:43:29;;;;;;;;;;;;;;;1.34;100.00;66930.19;5022044;28;19932;-86
2023/01/28 11:46:13;;;;;;;;;;;;;;;1.46;100.00;66940.50;5024494;28;19928;-86
2023/01/28 11:48:41;;;;;;;;;;;;;;;1.43;100.00;66940.31;5024146;28;20270;-86
2023/01/28 11:51:06;;;;;;;;;;;;;;;;;;5026959;28;19952;-86
2023/01/28 11:53:32;;;;;;;;;;;;;;;;;;5026540;28;19964;-86
2023/01/28 11:56:27;;;;;;;;;;;;;;;1.83;100.00;66976.34;5024872;28;19925;-86
2023/01/28 11:59:11;;;;;;;;;;;;;;;1.71;100.00;66968.09;5019655;28;20287;-86
2023/01/28 12:01:36;;;;;;;;;;;;;;;;;;5021360;28;19974;-86
2023/01/28 12:04:07;;;;;;;;;;;;;;;1.79;100.00;66977.66;5027197;28;19925;-86
2023/01/28 12:06:41;;;;;;;;;;;;;;;2.01;100.00;67001.31;5024079;28;19917;-86
2023/01/28 12:09:06;;;;;;;;;;;;;;;;;;5013263;28;19921;-87
2023/01/28 12:14:25;;;;;;;;;;;;;;;2.12;100.00;67013.16;5035643;28;19928;-86
2023/01/28 12:16:50;;;;;;;;;;;;;;;;;;5021120;28;19917;-86
2023/01/28 12:19:15;;;;;;;;;;;;;;;;;;5021601;28;20035;-86
2023/01/28 12:22:20;;;;;;;;;;;;;;;2.72;100.00;67074.38;5038234;28;19921;-87
2023/01/28 12:24:45;;;;;;;;;;;;;;;2.82;100.00;67085.06;4998991;28;19917;-86
2023/01/28 12:27:10;;;;;;;;;;;;;;;;;;5001023;28;19928;-86
2023/01/28 12:29:41;;;;;;;;;;;;;;;2.46;100.00;67045.63;5010288;28;20398;-86
2023/01/28 12:32:06;;;;;;;;;;;;;;;;;;5020543;28;20425;-86
2023/01/28 12:34:50;;;;;;;;;;;;;;;2.53;100.00;67058.78;5023465;28;19917;-86
2023/01/28 12:37:27;;;;;;;;;;;;;;;2.37;100.00;67041.31;5030257;28;20011;-86
2023/01/28 12:40:11;;;;;;;;;;;;;;;2.31;100.00;67034.00;5020944;28;20008;-86
2023/01/28 12:42:36;;;;;;;;;;;;;;;;;;5035800;28;19925;-86
2023/01/28 12:45:02;;;;;;;;;;;;;;;;;;5022637;28;19921;-86
2023/01/28 12:47:38;;;;;;;;;;;;;;;2.24;100.00;67026.66;5019500;28;19925;-86
2023/01/28 12:50:16;;;;;;;;;;;;;;;2.46;100.00;67043.56;5020284;28;20413;-86
2023/01/28 12:52:49;;;;;;;;;;;;;;;2.45;100.00;67050.34;5021992;28;20284;-86
2023/01/28 12:55:14;;;;;;;;;;;;;;;;;;5019905;28;19917;-86
2023/01/28 12:57:40;;;;;;;;;;;;;;;2.57;100.00;67057.47;5017201;28;19925;-86
2023/01/28 13:00:24;;;;;;;;;;;;;;;2.79;100.00;67087.53;5022343;28;19917;-86
2023/01/28 13:02:54;;;;;;;;;;;;;;;2.64;100.00;67073.78;5022638;28;19952;-86
2023/01/28 13:05:19;;;;;;;;;;;;;;;;;;5022032;28;20454;-86
2023/01/28 13:07:44;;;;;;;;;;;;;;;;;;5021116;28;19917;-86
2023/01/28 13:10:28;;;;;;;;;;;;;;;2.62;100.00;67063.13;5022321;28;19956;-86
2023/01/28 13:12:55;;;;;;;;;;;;;;;2.76;100.00;67084.13;5025918;28;20487;-86
2023/01/28 13:15:21;;;;;;;;;;;;;;;2.85;100.00;67094.28;5026569;28;19925;-86
2023/01/28 13:17:46;;;;;;;;;;;;;;;;;;5024220;28;19921;-86
2023/01/28 13:20:16;;;;;;;;;;;;;;;2.75;100.00;67083.00;5028240;28;19921;-87
2023/01/28 13:22:41;;;;;;;;;;;;;;;;;;5029936;28;19929;-87
2023/01/28 13:25:06;;;;;;;;;;;;;;;;;;5025526;28;19918;-87
2023/01/28 13:27:31;;;;;;;;;;;;;;;2.81;100.00;67089.22;5027188;28;19917;-87
2023/01/28 13:30:00;;;;;;;;;;;;;;;2.94;100.00;67104.44;5024410;28;19924;-87
2023/01/28 13:32:31;;;;;;;;;;;;;;;3.00;100.00;67104.81;5018083;28;19924;-87
2023/01/28 13:35:01;;;;;;;;;;;;;;;2.91;100.00;67095.78;5023712;28;19928;-87
2023/01/28 13:37:26;;;;;;;;;;;;;;;;;;5030541;28;20422;-86
2023/01/28 13:39:52;;;;;;;;;;;;;;;;;;5026991;28;20657;-85
2023/01/28 13:42:17;;;;;;;;;;;;;;;;;;5028977;28;19928;-86
2023/01/28 13:44:42;;;;;;;;;;;;;;;;;;5025182;28;19976;-85
2023/01/28 13:47:07;;;;;;;;;;;;;;;;;;5029927;28;19971;-86
2023/01/28 13:49:36;;;;;;;;;;;;;;;3.11;100.00;67114.59;5022211;28;20302;-84
2023/01/28 13:52:10;;;;;;;;;;;;;;;3.25;100.00;67133.00;5030434;28;19925;-85
2023/01/28 13:54:38;;;;;;;;;;;;;;;3.26;100.00;67134.13;5031382;28;20004;-84
2023/01/28 13:57:21;;;;;;;;;;;;;;;3.41;100.00;67149.91;5020424;28;19956;-84
2023/01/28 13:59:47;;;;;;;;;;;;;;;3.39;100.00;67148.78;5033932;28;20309;-85
2023/01/28 14:02:18;;;;;;;;;;;;;;;3.42;100.00;67151.03;5027570;28;19917;-85
2023/01/28 14:04:49;;;;;;;;;;;;;;;3.27;100.00;67134.69;5022155;28;20066;-84
2023/01/28 14:07:20;;;;;;;;;;;;;;;3.33;100.00;67147.28;5028709;28;20272;-85
2023/01/28 14:09:58;;;;;;;;;;;;;;;3.24;100.00;67131.31;5021748;28;19928;-84
2023/01/28 14:12:26;;;;;;;;;;;;;;;3.44;100.00;67159.13;5025571;28;19917;-86
2023/01/28 14:14:57;;;;;;;;;;;;;;;3.43;100.00;67157.44;5025626;28;20409;-85
2023/01/28 14:17:22;;;;;;;;;;;;;;;;;;5033461;28;19917;-86
2023/01/28 14:19:47;;;;;;;;;;;;;;;;;;5020397;28;20193;-84
2023/01/28 14:22:16;;;;;;;;;;;;;;;3.24;100.00;67131.88;5027409;28;19918;-86
2023/01/28 14:24:41;;;;;;;;;;;;;;;;;;5015024;28;19918;-84
2023/01/28 14:27:06;;;;;;;;;;;;;;;;;;5016899;28;19917;-84
2023/01/28 14:29:31;;;;;;;;;;;;;;;3.14;100.00;67126.41;5027928;28;20016;-86
2023/01/28 14:31:57;;;;;;;;;;;;;;;3.18;100.00;67125.09;5028742;28;20800;-85
2023/01/28 14:34:23;;;;;;;;;;;;;;;;;;5028906;28;19975;-86